Avalon, PA

2:18 PM EDT on July 28, 2015 (GMT -0400)
Perrysville | | Change Station
CLOSE
Current Station
Personal Weather Station
Location: Pittsburgh, PA
Elevation: 1175 ft
Nearby Weather Stations

Elev 1175 ft 40.54 °N, 80.04 °W | Updated 8 seconds ago

Partly Cloudy
Partly Cloudy
88.0 °F
Feels Like 90 °F
N
0.0
Wind Variable Wind from WSW
Gusts 1.6 mph

Today
High -- | Low -- °F
--% Chance of Precip.
Yesterday
High -- | Low -- °F
Precip. -- in
6:13 AM 8:39 PM
Waxing Gibbous, 91% visible
Pressure 30.01 in
Visibility 8.0 miles
Clouds Scattered Clouds 4100 ft
Heat Index 90 °F
Dew Point 65 °F
Humidity 46%
Rainfall 0.00 in
Snow Depth Not available.
UV 9 out of 12
Pollen 5.70 out of 12
Air Quality Not available.
Flu Activity Not available.
METAR KPIT 281751Z COR 08005KT 8SM SCT041 31/18 A3002 RMK AO2 SLP160 T03060178 10317 20222 58009

More Conditions Fewer Conditions

Pressure 30.01 in
Visibility 8.0 miles
Clouds Scattered Clouds 4100 ft
Heat Index 90 °F
Dew Point 65 °F
Humidity 46%
Rainfall 0.00 in
Snow Depth Not available.
UV 9 out of 12
Pollen 5.70 out of 12
Air Quality Not available.
Flu Activity Not available.
METAR KPIT 281751Z COR 08005KT 8SM SCT041 31/18 A3002 RMK AO2 SLP160 T03060178 10317 20222 58009

More Conditions Fewer Conditions

10-Day Weather Forecast

×

Almanac

Astronomy

Jul. 28, 2015 Rise Set
Actual Time
Civil Twilight
Nautical Twilight
Astronomical Twilight
Moon
Length of Visible Light
Length of Day
Tomorrow will be .
, % of the Moon is Illuminated

Today's Extremes

State Highs State Lows

Community

WunderPhotos

Upload Photos

1,841,906 photos uploaded!

WunderBlogs® & News

Nearby

Air Quality

  Air Quality AQ Index Pollutant
Not available.

Snow Depth

Station Depth Elevation

Earthquake Activity

City Distance Mag. Time & Date
Minimum magnitude displayed is 2.5.

Coastal Water Temperatures

Place Temperature

Stations

Nearby Weather Stations

Station Location Temp. Windchill Dew Point Humidity Wind Precip. Elev Updated Type